sensor_id;sensor_type;location;lat;lon;timestamp;P1;durP1;ratioP1;P2;durP2;ratioP2
68757;SDS011;55747;51.998;4.466;2022-07-06T00:01:31;2.85;;;1.23;;
68757;SDS011;55747;51.998;4.466;2022-07-06T00:03:57;4.72;;;1.20;;
68757;SDS011;55747;51.998;4.466;2022-07-06T00:06:22;3.40;;;1.30;;
68757;SDS011;55747;51.998;4.466;2022-07-06T00:08:48;4.95;;;1.17;;
68757;SDS011;55747;51.998;4.466;2022-07-06T00:11:14;4.13;;;1.30;;
68757;SDS011;55747;51.998;4.466;2022-07-06T00:13:39;4.05;;;1.40;;
68757;SDS011;55747;51.998;4.466;2022-07-06T00:16:04;3.72;;;1.20;;
68757;SDS011;55747;51.998;4.466;2022-07-06T00:18:30;3.30;;;1.40;;
68757;SDS011;55747;51.998;4.466;2022-07-06T00:20:56;2.78;;;1.33;;
68757;SDS011;55747;51.998;4.466;2022-07-06T00:23:21;3.88;;;1.40;;
68757;SDS011;55747;51.998;4.466;2022-07-06T00:25:46;4.82;;;1.38;;
68757;SDS011;55747;51.998;4.466;2022-07-06T00:28:13;3.15;;;1.10;;
68757;SDS011;55747;51.998;4.466;2022-07-06T00:30:39;4.72;;;1.20;;
68757;SDS011;55747;51.998;4.466;2022-07-06T00:33:04;6.22;;;1.30;;
68757;SDS011;55747;51.998;4.466;2022-07-06T00:35:29;2.10;;;1.23;;
68757;SDS011;55747;51.998;4.466;2022-07-06T00:37:55;2.95;;;1.00;;
68757;SDS011;55747;51.998;4.466;2022-07-06T00:40:20;5.85;;;1.58;;
68757;SDS011;55747;51.998;4.466;2022-07-06T00:42:46;3.67;;;1.40;;
68757;SDS011;55747;51.998;4.466;2022-07-06T00:45:13;3.25;;;1.05;;
68757;SDS011;55747;51.998;4.466;2022-07-06T00:47:40;4.13;;;1.25;;
68757;SDS011;55747;51.998;4.466;2022-07-06T00:50:07;4.32;;;1.48;;
68757;SDS011;55747;51.998;4.466;2022-07-06T00:52:42;3.97;;;1.42;;
68757;SDS011;55747;51.998;4.466;2022-07-06T00:55:10;5.72;;;1.45;;
68757;SDS011;55747;51.998;4.466;2022-07-06T00:57:39;4.95;;;1.30;;
68757;SDS011;55747;51.998;4.466;2022-07-06T01:00:06;3.40;;;1.35;;
68757;SDS011;55747;51.998;4.466;2022-07-06T01:02:36;7.97;;;1.60;;
68757;SDS011;55747;51.998;4.466;2022-07-06T01:05:05;2.95;;;1.10;;
68757;SDS011;55747;51.998;4.466;2022-07-06T01:07:32;2.92;;;1.17;;
68757;SDS011;55747;51.998;4.466;2022-07-06T01:09:58;6.18;;;1.50;;
68757;SDS011;55747;51.998;4.466;2022-07-06T01:12:23;5.75;;;1.35;;
68757;SDS011;55747;51.998;4.466;2022-07-06T01:14:49;3.95;;;1.52;;
68757;SDS011;55747;51.998;4.466;2022-07-06T01:17:15;5.13;;;1.30;;
68757;SDS011;55747;51.998;4.466;2022-07-06T01:19:42;4.82;;;1.30;;
68757;SDS011;55747;51.998;4.466;2022-07-06T01:22:08;2.53;;;1.20;;
68757;SDS011;55747;51.998;4.466;2022-07-06T01:24:37;2.67;;;1.10;;
68757;SDS011;55747;51.998;4.466;2022-07-06T01:27:06;5.40;;;1.30;;
68757;SDS011;55747;51.998;4.466;2022-07-06T01:29:32;4.47;;;1.27;;
68757;SDS011;55747;51.998;4.466;2022-07-06T01:31:58;5.05;;;1.38;;
68757;SDS011;55747;51.998;4.466;2022-07-06T01:34:23;3.13;;;1.20;;
68757;SDS011;55747;51.998;4.466;2022-07-06T01:36:49;4.13;;;1.30;;
68757;SDS011;55747;51.998;4.466;2022-07-06T01:39:14;3.28;;;1.10;;
68757;SDS011;55747;51.998;4.466;2022-07-06T01:41:40;2.57;;;1.10;;
68757;SDS011;55747;51.998;4.466;2022-07-06T01:44:05;3.13;;;1.10;;
68757;SDS011;55747;51.998;4.466;2022-07-06T01:46:31;5.70;;;1.30;;
68757;SDS011;55747;51.998;4.466;2022-07-06T01:48:57;1.90;;;1.20;;
68757;SDS011;55747;51.998;4.466;2022-07-06T01:51:22;2.55;;;1.40;;
68757;SDS011;55747;51.998;4.466;2022-07-06T01:53:49;4.50;;;1.50;;
68757;SDS011;55747;51.998;4.466;2022-07-06T01:56:15;4.28;;;1.95;;
68757;SDS011;55747;51.998;4.466;2022-07-06T01:58:42;1.80;;;1.10;;
68757;SDS011;55747;51.998;4.466;2022-07-06T02:01:11;2.13;;;1.30;;
68757;SDS011;55747;51.998;4.466;2022-07-06T02:03:39;4.03;;;1.50;;
68757;SDS011;55747;51.998;4.466;2022-07-06T02:06:05;4.90;;;1.50;;
68757;SDS011;55747;51.998;4.466;2022-07-06T02:08:31;4.80;;;1.73;;
68757;SDS011;55747;51.998;4.466;2022-07-06T02:10:58;4.88;;;1.60;;
68757;SDS011;55747;51.998;4.466;2022-07-06T02:13:23;2.20;;;1.57;;
68757;SDS011;55747;51.998;4.466;2022-07-06T02:15:49;4.97;;;1.92;;
68757;SDS011;55747;51.998;4.466;2022-07-06T02:18:14;5.03;;;1.85;;
68757;SDS011;55747;51.998;4.466;2022-07-06T02:20:40;5.88;;;2.00;;
68757;SDS011;55747;51.998;4.466;2022-07-06T02:23:05;5.37;;;2.13;;
68757;SDS011;55747;51.998;4.466;2022-07-06T02:25:30;4.75;;;1.90;;
68757;SDS011;55747;51.998;4.466;2022-07-06T02:27:56;3.40;;;1.90;;
68757;SDS011;55747;51.998;4.466;2022-07-06T02:30:21;3.17;;;1.75;;
68757;SDS011;55747;51.998;4.466;2022-07-06T02:32:47;5.22;;;2.15;;
68757;SDS011;55747;51.998;4.466;2022-07-06T02:35:12;3.17;;;1.70;;
68757;SDS011;55747;51.998;4.466;2022-07-06T02:37:37;3.67;;;1.80;;
68757;SDS011;55747;51.998;4.466;2022-07-06T02:40:03;6.18;;;1.95;;
68757;SDS011;55747;51.998;4.466;2022-07-06T02:42:29;3.42;;;2.08;;
68757;SDS011;55747;51.998;4.466;2022-07-06T02:44:54;5.78;;;2.03;;
68757;SDS011;55747;51.998;4.466;2022-07-06T02:47:20;4.88;;;2.00;;
68757;SDS011;55747;51.998;4.466;2022-07-06T02:49:46;6.90;;;1.92;;
68757;SDS011;55747;51.998;4.466;2022-07-06T02:52:11;3.00;;;1.80;;
68757;SDS011;55747;51.998;4.466;2022-07-06T02:54:37;5.00;;;1.87;;
68757;SDS011;55747;51.998;4.466;2022-07-06T02:57:02;3.00;;;1.70;;
68757;SDS011;55747;51.998;4.466;2022-07-06T02:59:27;3.45;;;1.70;;
68757;SDS011;55747;51.998;4.466;2022-07-06T03:01:53;3.83;;;1.60;;
68757;SDS011;55747;51.998;4.466;2022-07-06T03:04:18;3.30;;;1.90;;
68757;SDS011;55747;51.998;4.466;2022-07-06T03:06:43;2.25;;;1.75;;
68757;SDS011;55747;51.998;4.466;2022-07-06T03:09:09;4.28;;;1.73;;
68757;SDS011;55747;51.998;4.466;2022-07-06T03:11:34;3.17;;;1.70;;
68757;SDS011;55747;51.998;4.466;2022-07-06T03:14:01;4.22;;;2.03;;
68757;SDS011;55747;51.998;4.466;2022-07-06T03:16:28;3.15;;;1.80;;
68757;SDS011;55747;51.998;4.466;2022-07-06T03:18:53;3.83;;;1.90;;
68757;SDS011;55747;51.998;4.466;2022-07-06T03:21:19;5.80;;;1.97;;
68757;SDS011;55747;51.998;4.466;2022-07-06T03:23:44;3.05;;;2.03;;
68757;SDS011;55747;51.998;4.466;2022-07-06T03:26:09;3.15;;;1.90;;
68757;SDS011;55747;51.998;4.466;2022-07-06T03:28:35;4.50;;;2.17;;
68757;SDS011;55747;51.998;4.466;2022-07-06T03:31:00;3.85;;;2.22;;
68757;SDS011;55747;51.998;4.466;2022-07-06T03:33:25;4.55;;;2.25;;
68757;SDS011;55747;51.998;4.466;2022-07-06T03:35:50;5.57;;;2.22;;
68757;SDS011;55747;51.998;4.466;2022-07-06T03:38:16;3.67;;;2.17;;
68757;SDS011;55747;51.998;4.466;2022-07-06T03:40:41;5.28;;;2.47;;
68757;SDS011;55747;51.998;4.466;2022-07-06T03:43:06;3.75;;;2.17;;
68757;SDS011;55747;51.998;4.466;2022-07-06T03:45:32;4.25;;;2.15;;
68757;SDS011;55747;51.998;4.466;2022-07-06T03:47:57;4.20;;;1.92;;
68757;SDS011;55747;51.998;4.466;2022-07-06T03:50:22;3.37;;;2.07;;
68757;SDS011;55747;51.998;4.466;2022-07-06T03:52:48;4.27;;;2.10;;
68757;SDS011;55747;51.998;4.466;2022-07-06T03:55:13;3.63;;;2.07;;
68757;SDS011;55747;51.998;4.466;2022-07-06T03:57:38;4.65;;;2.40;;
68757;SDS011;55747;51.998;4.466;2022-07-06T04:00:06;3.80;;;2.08;;
68757;SDS011;55747;51.998;4.466;2022-07-06T04:02:32;3.88;;;2.03;;
68757;SDS011;55747;51.998;4.466;2022-07-06T04:04:58;3.28;;;2.20;;
68757;SDS011;55747;51.998;4.466;2022-07-06T04:07:23;4.57;;;2.00;;
68757;SDS011;55747;51.998;4.466;2022-07-06T04:09:48;4.30;;;1.70;;
68757;SDS011;55747;51.998;4.466;2022-07-06T04:12:13;5.60;;;2.07;;
68757;SDS011;55747;51.998;4.466;2022-07-06T04:14:39;2.20;;;1.57;;
68757;SDS011;55747;51.998;4.466;2022-07-06T04:17:04;3.77;;;1.90;;
68757;SDS011;55747;51.998;4.466;2022-07-06T04:19:49;3.63;;;1.60;;
68757;SDS011;55747;51.998;4.466;2022-07-06T04:22:14;5.80;;;1.80;;
68757;SDS011;55747;51.998;4.466;2022-07-06T04:24:40;3.80;;;1.88;;
68757;SDS011;55747;51.998;4.466;2022-07-06T04:27:05;3.33;;;1.60;;
68757;SDS011;55747;51.998;4.466;2022-07-06T04:29:30;2.40;;;1.40;;
68757;SDS011;55747;51.998;4.466;2022-07-06T04:31:56;3.47;;;1.50;;
68757;SDS011;55747;51.998;4.466;2022-07-06T04:34:21;2.60;;;1.37;;
68757;SDS011;55747;51.998;4.466;2022-07-06T04:36:46;2.10;;;1.25;;
68757;SDS011;55747;51.998;4.466;2022-07-06T04:39:11;2.00;;;1.40;;
68757;SDS011;55747;51.998;4.466;2022-07-06T04:41:37;3.33;;;1.40;;
68757;SDS011;55747;51.998;4.466;2022-07-06T04:44:02;2.28;;;1.15;;
68757;SDS011;55747;51.998;4.466;2022-07-06T04:46:27;3.40;;;1.70;;
68757;SDS011;55747;51.998;4.466;2022-07-06T04:48:53;2.10;;;1.30;;
68757;SDS011;55747;51.998;4.466;2022-07-06T04:51:18;4.43;;;1.30;;
68757;SDS011;55747;51.998;4.466;2022-07-06T04:53:43;2.93;;;1.30;;
68757;SDS011;55747;51.998;4.466;2022-07-06T04:56:09;3.75;;;1.40;;
68757;SDS011;55747;51.998;4.466;2022-07-06T04:58:34;3.70;;;1.73;;
68757;SDS011;55747;51.998;4.466;2022-07-06T05:00:59;2.23;;;1.30;;
68757;SDS011;55747;51.998;4.466;2022-07-06T05:03:24;3.45;;;1.30;;
68757;SDS011;55747;51.998;4.466;2022-07-06T05:05:50;3.22;;;1.20;;
68757;SDS011;55747;51.998;4.466;2022-07-06T05:08:15;3.85;;;1.10;;
68757;SDS011;55747;51.998;4.466;2022-07-06T05:10:41;4.60;;;1.37;;
68757;SDS011;55747;51.998;4.466;2022-07-06T05:13:06;3.07;;;0.87;;
68757;SDS011;55747;51.998;4.466;2022-07-06T05:15:31;4.32;;;1.38;;
68757;SDS011;55747;51.998;4.466;2022-07-06T05:17:57;4.80;;;1.02;;
68757;SDS011;55747;51.998;4.466;2022-07-06T05:20:22;2.10;;;1.00;;
68757;SDS011;55747;51.998;4.466;2022-07-06T05:22:47;2.00;;;1.00;;
68757;SDS011;55747;51.998;4.466;2022-07-06T05:25:12;3.63;;;1.10;;
68757;SDS011;55747;51.998;4.466;2022-07-06T05:27:38;3.77;;;1.07;;
68757;SDS011;55747;51.998;4.466;2022-07-06T05:30:03;1.73;;;0.80;;
68757;SDS011;55747;51.998;4.466;2022-07-06T05:32:29;1.92;;;0.90;;
68757;SDS011;55747;51.998;4.466;2022-07-06T05:34:54;1.95;;;0.90;;
68757;SDS011;55747;51.998;4.466;2022-07-06T05:37:19;4.27;;;0.80;;
68757;SDS011;55747;51.998;4.466;2022-07-06T05:39:45;1.30;;;0.70;;
68757;SDS011;55747;51.998;4.466;2022-07-06T05:42:12;3.42;;;0.88;;
68757;SDS011;55747;51.998;4.466;2022-07-06T05:44:37;3.97;;;0.88;;
68757;SDS011;55747;51.998;4.466;2022-07-06T05:47:03;1.98;;;0.82;;
68757;SDS011;55747;51.998;4.466;2022-07-06T05:49:47;6.93;;;0.95;;
68757;SDS011;55747;51.998;4.466;2022-07-06T05:52:31;2.90;;;0.70;;
68757;SDS011;55747;51.998;4.466;2022-07-06T05:54:56;2.10;;;0.73;;
68757;SDS011;55747;51.998;4.466;2022-07-06T05:57:21;2.50;;;0.60;;
68757;SDS011;55747;51.998;4.466;2022-07-06T05:59:47;5.15;;;0.70;;
68757;SDS011;55747;51.998;4.466;2022-07-06T06:02:12;3.42;;;0.80;;
68757;SDS011;55747;51.998;4.466;2022-07-06T06:04:38;3.27;;;0.77;;
68757;SDS011;55747;51.998;4.466;2022-07-06T06:07:03;3.30;;;0.70;;
68757;SDS011;55747;51.998;4.466;2022-07-06T06:09:28;3.33;;;0.73;;
68757;SDS011;55747;51.998;4.466;2022-07-06T06:11:54;8.23;;;1.10;;
68757;SDS011;55747;51.998;4.466;2022-07-06T06:14:19;3.13;;;0.97;;
68757;SDS011;55747;51.998;4.466;2022-07-06T06:16:44;1.80;;;0.60;;
68757;SDS011;55747;51.998;4.466;2022-07-06T06:19:09;1.30;;;0.70;;
68757;SDS011;55747;51.998;4.466;2022-07-06T06:21:35;5.70;;;0.80;;
68757;SDS011;55747;51.998;4.466;2022-07-06T06:24:00;2.17;;;0.50;;
68757;SDS011;55747;51.998;4.466;2022-07-06T06:26:25;0.90;;;0.40;;
68757;SDS011;55747;51.998;4.466;2022-07-06T06:28:51;3.40;;;0.70;;
68757;SDS011;55747;51.998;4.466;2022-07-06T06:31:16;2.80;;;0.80;;
68757;SDS011;55747;51.998;4.466;2022-07-06T06:33:41;6.63;;;1.10;;
68757;SDS011;55747;51.998;4.466;2022-07-06T06:36:07;1.60;;;0.60;;
68757;SDS011;55747;51.998;4.466;2022-07-06T06:38:32;2.10;;;0.65;;
68757;SDS011;55747;51.998;4.466;2022-07-06T06:40:58;2.13;;;0.60;;
68757;SDS011;55747;51.998;4.466;2022-07-06T06:43:26;1.83;;;0.73;;
68757;SDS011;55747;51.998;4.466;2022-07-06T06:45:52;2.63;;;0.90;;
68757;SDS011;55747;51.998;4.466;2022-07-06T06:48:17;5.37;;;0.90;;
68757;SDS011;55747;51.998;4.466;2022-07-06T06:50:44;2.08;;;0.70;;
68757;SDS011;55747;51.998;4.466;2022-07-06T06:53:12;2.22;;;0.57;;
68757;SDS011;55747;51.998;4.466;2022-07-06T06:55:38;0.93;;;0.50;;
68757;SDS011;55747;51.998;4.466;2022-07-06T06:58:03;5.90;;;0.63;;
68757;SDS011;55747;51.998;4.466;2022-07-06T07:00:28;0.90;;;0.50;;
68757;SDS011;55747;51.998;4.466;2022-07-06T07:02:54;1.38;;;0.65;;
68757;SDS011;55747;51.998;4.466;2022-07-06T07:05:19;2.10;;;0.70;;
68757;SDS011;55747;51.998;4.466;2022-07-06T07:07:44;2.33;;;0.50;;
68757;SDS011;55747;51.998;4.466;2022-07-06T07:10:10;1.95;;;0.60;;
68757;SDS011;55747;51.998;4.466;2022-07-06T07:12:41;2.42;;;0.50;;
68757;SDS011;55747;51.998;4.466;2022-07-06T07:15:08;0.88;;;0.50;;
68757;SDS011;55747;51.998;4.466;2022-07-06T07:17:33;2.92;;;0.70;;
68757;SDS011;55747;51.998;4.466;2022-07-06T07:19:59;1.87;;;0.50;;
68757;SDS011;55747;51.998;4.466;2022-07-06T07:22:24;1.37;;;0.60;;
68757;SDS011;55747;51.998;4.466;2022-07-06T07:24:49;1.70;;;0.40;;
68757;SDS011;55747;51.998;4.466;2022-07-06T07:27:15;2.00;;;0.40;;
68757;SDS011;55747;51.998;4.466;2022-07-06T07:29:40;0.90;;;0.40;;
68757;SDS011;55747;51.998;4.466;2022-07-06T07:32:08;2.78;;;0.50;;
68757;SDS011;55747;51.998;4.466;2022-07-06T07:34:33;1.35;;;0.40;;
68757;SDS011;55747;51.998;4.466;2022-07-06T07:36:59;2.20;;;0.53;;
68757;SDS011;55747;51.998;4.466;2022-07-06T07:39:24;3.17;;;0.57;;
68757;SDS011;55747;51.998;4.466;2022-07-06T07:41:49;1.67;;;0.40;;
68757;SDS011;55747;51.998;4.466;2022-07-06T07:44:17;1.40;;;0.45;;
68757;SDS011;55747;51.998;4.466;2022-07-06T07:46:43;2.60;;;0.55;;
68757;SDS011;55747;51.998;4.466;2022-07-06T07:49:08;1.55;;;0.50;;
68757;SDS011;55747;51.998;4.466;2022-07-06T07:51:34;1.05;;;0.40;;
68757;SDS011;55747;51.998;4.466;2022-07-06T07:53:59;1.27;;;0.40;;
68757;SDS011;55747;51.998;4.466;2022-07-06T07:56:25;0.73;;;0.40;;
68757;SDS011;55747;51.998;4.466;2022-07-06T07:58:50;3.50;;;0.60;;
68757;SDS011;55747;51.998;4.466;2022-07-06T08:01:15;1.03;;;0.47;;
68757;SDS011;55747;51.998;4.466;2022-07-06T08:03:40;1.47;;;0.50;;
68757;SDS011;55747;51.998;4.466;2022-07-06T08:06:06;1.23;;;0.50;;
68757;SDS011;55747;51.998;4.466;2022-07-06T08:08:31;1.77;;;0.45;;
68757;SDS011;55747;51.998;4.466;2022-07-06T08:10:56;1.20;;;0.50;;
68757;SDS011;55747;51.998;4.466;2022-07-06T08:13:22;1.00;;;0.40;;
68757;SDS011;55747;51.998;4.466;2022-07-06T08:15:47;0.77;;;0.33;;
68757;SDS011;55747;51.998;4.466;2022-07-06T08:18:12;1.20;;;0.40;;
68757;SDS011;55747;51.998;4.466;2022-07-06T08:20:37;2.73;;;0.60;;
68757;SDS011;55747;51.998;4.466;2022-07-06T08:23:03;1.17;;;0.40;;
68757;SDS011;55747;51.998;4.466;2022-07-06T08:25:29;1.10;;;0.40;;
68757;SDS011;55747;51.998;4.466;2022-07-06T08:27:55;2.47;;;0.50;;
68757;SDS011;55747;51.998;4.466;2022-07-06T08:30:20;1.23;;;0.40;;
68757;SDS011;55747;51.998;4.466;2022-07-06T08:32:45;1.63;;;0.50;;
68757;SDS011;55747;51.998;4.466;2022-07-06T08:35:11;1.02;;;0.50;;
68757;SDS011;55747;51.998;4.466;2022-07-06T08:37:36;1.15;;;0.45;;
68757;SDS011;55747;51.998;4.466;2022-07-06T08:40:02;1.93;;;0.40;;
68757;SDS011;55747;51.998;4.466;2022-07-06T08:42:32;0.63;;;0.40;;
68757;SDS011;55747;51.998;4.466;2022-07-06T08:44:59;1.80;;;0.68;;
68757;SDS011;55747;51.998;4.466;2022-07-06T08:47:26;1.25;;;0.40;;
68757;SDS011;55747;51.998;4.466;2022-07-06T08:49:52;1.00;;;0.50;;
68757;SDS011;55747;51.998;4.466;2022-07-06T08:52:18;1.95;;;0.70;;
68757;SDS011;55747;51.998;4.466;2022-07-06T08:54:44;1.80;;;0.65;;
68757;SDS011;55747;51.998;4.466;2022-07-06T08:57:10;1.08;;;0.50;;
68757;SDS011;55747;51.998;4.466;2022-07-06T08:59:36;0.80;;;0.40;;
68757;SDS011;55747;51.998;4.466;2022-07-06T09:02:04;1.58;;;0.68;;
68757;SDS011;55747;51.998;4.466;2022-07-06T09:04:29;1.60;;;0.50;;
68757;SDS011;55747;51.998;4.466;2022-07-06T09:06:58;1.27;;;0.40;;
68757;SDS011;55747;51.998;4.466;2022-07-06T09:09:23;1.87;;;0.60;;
68757;SDS011;55747;51.998;4.466;2022-07-06T09:11:49;3.28;;;0.50;;
68757;SDS011;55747;51.998;4.466;2022-07-06T09:14:15;0.93;;;0.45;;
68757;SDS011;55747;51.998;4.466;2022-07-06T09:16:40;5.60;;;0.60;;
68757;SDS011;55747;51.998;4.466;2022-07-06T09:19:06;3.67;;;0.70;;
68757;SDS011;55747;51.998;4.466;2022-07-06T09:21:32;2.70;;;0.60;;
68757;SDS011;55747;51.998;4.466;2022-07-06T09:24:01;1.85;;;0.70;;
68757;SDS011;55747;51.998;4.466;2022-07-06T09:26:30;1.48;;;0.50;;
68757;SDS011;55747;51.998;4.466;2022-07-06T09:28:56;3.30;;;0.73;;
68757;SDS011;55747;51.998;4.466;2022-07-06T09:31:22;1.50;;;0.55;;
68757;SDS011;55747;51.998;4.466;2022-07-06T09:34:04;4.70;;;0.90;;
68757;SDS011;55747;51.998;4.466;2022-07-06T09:41:40;2.22;;;0.60;;
68757;SDS011;55747;51.998;4.466;2022-07-06T09:44:05;0.60;;;0.40;;
68757;SDS011;55747;51.998;4.466;2022-07-06T09:46:37;2.22;;;0.60;;
68757;SDS011;55747;51.998;4.466;2022-07-06T09:49:06;2.95;;;0.68;;
68757;SDS011;55747;51.998;4.466;2022-07-06T09:51:32;2.45;;;0.52;;
68757;SDS011;55747;51.998;4.466;2022-07-06T09:54:03;4.72;;;0.80;;
68757;SDS011;55747;51.998;4.466;2022-07-06T09:56:40;1.85;;;0.60;;
68757;SDS011;55747;51.998;4.466;2022-07-06T09:59:10;3.60;;;0.60;;
68757;SDS011;55747;51.998;4.466;2022-07-06T10:01:37;2.17;;;0.63;;
68757;SDS011;55747;51.998;4.466;2022-07-06T10:04:03;2.45;;;0.70;;
68757;SDS011;55747;51.998;4.466;2022-07-06T10:06:29;1.73;;;0.60;;
68757;SDS011;55747;51.998;4.466;2022-07-06T10:08:55;1.73;;;0.80;;
68757;SDS011;55747;51.998;4.466;2022-07-06T10:11:23;5.90;;;0.80;;
68757;SDS011;55747;51.998;4.466;2022-07-06T10:13:49;3.70;;;0.80;;
68757;SDS011;55747;51.998;4.466;2022-07-06T10:16:22;2.13;;;0.60;;
68757;SDS011;55747;51.998;4.466;2022-07-06T10:18:48;2.80;;;0.90;;
68757;SDS011;55747;51.998;4.466;2022-07-06T10:21:15;4.18;;;0.77;;
68757;SDS011;55747;51.998;4.466;2022-07-06T10:23:42;2.17;;;0.75;;
68757;SDS011;55747;51.998;4.466;2022-07-06T10:26:08;2.00;;;0.70;;
68757;SDS011;55747;51.998;4.466;2022-07-06T10:28:34;2.88;;;0.80;;
68757;SDS011;55747;51.998;4.466;2022-07-06T10:31:00;2.88;;;0.60;;
68757;SDS011;55747;51.998;4.466;2022-07-06T10:33:26;2.28;;;0.80;;
68757;SDS011;55747;51.998;4.466;2022-07-06T10:35:52;3.75;;;1.02;;
68757;SDS011;55747;51.998;4.466;2022-07-06T10:38:17;4.90;;;1.77;;
68757;SDS011;55747;51.998;4.466;2022-07-06T10:40:44;2.00;;;0.80;;
68757;SDS011;55747;51.998;4.466;2022-07-06T10:43:34;3.85;;;0.70;;
68757;SDS011;55747;51.998;4.466;2022-07-06T10:46:05;2.45;;;0.70;;
68757;SDS011;55747;51.998;4.466;2022-07-06T10:48:38;3.38;;;0.90;;
68757;SDS011;55747;51.998;4.466;2022-07-06T10:51:05;1.70;;;0.70;;
68757;SDS011;55747;51.998;4.466;2022-07-06T10:53:35;1.77;;;0.65;;
68757;SDS011;55747;51.998;4.466;2022-07-06T10:56:08;1.98;;;0.80;;
68757;SDS011;55747;51.998;4.466;2022-07-06T10:58:46;1.73;;;0.63;;
68757;SDS011;55747;51.998;4.466;2022-07-06T11:01:15;2.28;;;0.73;;
68757;SDS011;55747;51.998;4.466;2022-07-06T11:03:44;3.88;;;0.80;;
68757;SDS011;55747;51.998;4.466;2022-07-06T11:06:15;2.53;;;0.90;;
68757;SDS011;55747;51.998;4.466;2022-07-06T11:11:14;3.97;;;1.00;;
68757;SDS011;55747;51.998;4.466;2022-07-06T11:13:55;5.22;;;1.00;;
68757;SDS011;55747;51.998;4.466;2022-07-06T11:16:21;2.10;;;0.90;;
68757;SDS011;55747;51.998;4.466;2022-07-06T11:21:35;2.25;;;1.00;;
68757;SDS011;55747;51.998;4.466;2022-07-06T11:24:03;2.33;;;1.00;;
68757;SDS011;55747;51.998;4.466;2022-07-06T11:26:30;4.38;;;0.90;;
68757;SDS011;55747;51.998;4.466;2022-07-06T11:28:56;4.40;;;1.02;;
68757;SDS011;55747;51.998;4.466;2022-07-06T11:31:23;3.05;;;0.82;;
68757;SDS011;55747;51.998;4.466;2022-07-06T11:33:49;4.80;;;1.00;;
68757;SDS011;55747;51.998;4.466;2022-07-06T11:36:15;2.75;;;0.82;;
68757;SDS011;55747;51.998;4.466;2022-07-06T11:38:41;2.55;;;1.00;;
68757;SDS011;55747;51.998;4.466;2022-07-06T11:41:07;2.20;;;0.88;;
68757;SDS011;55747;51.998;4.466;2022-07-06T11:43:33;2.83;;;0.95;;
68757;SDS011;55747;51.998;4.466;2022-07-06T11:45:59;6.78;;;1.10;;
68757;SDS011;55747;51.998;4.466;2022-07-06T11:48:24;4.47;;;1.10;;
68757;SDS011;55747;51.998;4.466;2022-07-06T11:51:08;3.20;;;1.00;;
68757;SDS011;55747;51.998;4.466;2022-07-06T11:53:33;3.28;;;1.17;;
68757;SDS011;55747;51.998;4.466;2022-07-06T11:56:01;2.27;;;1.13;;
68757;SDS011;55747;51.998;4.466;2022-07-06T11:58:28;7.63;;;1.20;;
68757;SDS011;55747;51.998;4.466;2022-07-06T12:01:02;3.47;;;0.90;;
68757;SDS011;55747;51.998;4.466;2022-07-06T12:03:31;4.20;;;1.10;;
68757;SDS011;55747;51.998;4.466;2022-07-06T12:05:57;2.88;;;1.00;;
68757;SDS011;55747;51.998;4.466;2022-07-06T12:08:23;3.17;;;1.00;;
68757;SDS011;55747;51.998;4.466;2022-07-06T12:10:48;6.30;;;1.17;;
68757;SDS011;55747;51.998;4.466;2022-07-06T12:13:14;4.00;;;1.00;;
68757;SDS011;55747;51.998;4.466;2022-07-06T12:15:42;5.63;;;1.10;;
68757;SDS011;55747;51.998;4.466;2022-07-06T12:18:07;2.90;;;1.00;;
68757;SDS011;55747;51.998;4.466;2022-07-06T12:20:33;3.33;;;1.00;;
68757;SDS011;55747;51.998;4.466;2022-07-06T12:23:05;4.50;;;1.00;;
68757;SDS011;55747;51.998;4.466;2022-07-06T12:25:31;3.95;;;1.10;;
68757;SDS011;55747;51.998;4.466;2022-07-06T12:27:57;4.45;;;1.20;;
68757;SDS011;55747;51.998;4.466;2022-07-06T12:30:23;1.77;;;1.00;;
68757;SDS011;55747;51.998;4.466;2022-07-06T12:35:37;5.43;;;1.30;;
68757;SDS011;55747;51.998;4.466;2022-07-06T12:38:02;4.53;;;1.65;;
68757;SDS011;55747;51.998;4.466;2022-07-06T12:40:28;3.57;;;1.10;;
68757;SDS011;55747;51.998;4.466;2022-07-06T12:42:54;2.78;;;1.20;;
68757;SDS011;55747;51.998;4.466;2022-07-06T12:45:19;5.87;;;1.37;;
68757;SDS011;55747;51.998;4.466;2022-07-06T12:47:57;4.70;;;1.50;;
68757;SDS011;55747;51.998;4.466;2022-07-06T12:50:32;3.25;;;1.17;;
68757;SDS011;55747;51.998;4.466;2022-07-06T12:53:02;4.03;;;1.30;;
68757;SDS011;55747;51.998;4.466;2022-07-06T12:55:29;4.55;;;1.10;;
68757;SDS011;55747;51.998;4.466;2022-07-06T12:57:55;4.60;;;1.35;;
68757;SDS011;55747;51.998;4.466;2022-07-06T13:00:21;5.05;;;1.15;;
68757;SDS011;55747;51.998;4.466;2022-07-06T13:02:50;3.83;;;1.30;;
68757;SDS011;55747;51.998;4.466;2022-07-06T13:05:24;4.53;;;1.30;;
68757;SDS011;55747;51.998;4.466;2022-07-06T13:07:55;3.78;;;1.10;;
68757;SDS011;55747;51.998;4.466;2022-07-06T13:10:22;3.35;;;1.23;;
68757;SDS011;55747;51.998;4.466;2022-07-06T13:12:49;3.10;;;1.10;;
68757;SDS011;55747;51.998;4.466;2022-07-06T13:15:14;3.22;;;1.30;;
68757;SDS011;55747;51.998;4.466;2022-07-06T13:17:40;3.28;;;1.30;;
68757;SDS011;55747;51.998;4.466;2022-07-06T13:20:07;4.20;;;1.48;;
68757;SDS011;55747;51.998;4.466;2022-07-06T13:22:33;2.90;;;1.40;;
68757;SDS011;55747;51.998;4.466;2022-07-06T13:24:58;5.93;;;1.93;;
68757;SDS011;55747;51.998;4.466;2022-07-06T13:27:23;4.80;;;1.50;;
68757;SDS011;55747;51.998;4.466;2022-07-06T13:29:49;4.57;;;1.50;;
68757;SDS011;55747;51.998;4.466;2022-07-06T13:32:14;5.27;;;1.80;;
68757;SDS011;55747;51.998;4.466;2022-07-06T13:34:39;6.78;;;1.73;;
68757;SDS011;55747;51.998;4.466;2022-07-06T13:37:05;4.20;;;1.70;;
68757;SDS011;55747;51.998;4.466;2022-07-06T13:39:31;6.35;;;2.15;;
68757;SDS011;55747;51.998;4.466;2022-07-06T13:41:57;5.30;;;2.03;;
68757;SDS011;55747;51.998;4.466;2022-07-06T13:44:22;6.00;;;2.20;;
68757;SDS011;55747;51.998;4.466;2022-07-06T13:46:48;4.90;;;2.10;;
68757;SDS011;55747;51.998;4.466;2022-07-06T13:49:14;5.10;;;2.30;;
68757;SDS011;55747;51.998;4.466;2022-07-06T13:51:39;4.68;;;2.33;;
68757;SDS011;55747;51.998;4.466;2022-07-06T13:54:05;5.07;;;2.20;;
68757;SDS011;55747;51.998;4.466;2022-07-06T13:56:30;5.63;;;2.10;;
68757;SDS011;55747;51.998;4.466;2022-07-06T13:58:56;8.17;;;3.00;;
68757;SDS011;55747;51.998;4.466;2022-07-06T14:01:21;7.37;;;2.70;;
68757;SDS011;55747;51.998;4.466;2022-07-06T14:03:47;6.90;;;2.63;;
68757;SDS011;55747;51.998;4.466;2022-07-06T14:06:12;7.63;;;2.67;;
68757;SDS011;55747;51.998;4.466;2022-07-06T14:08:38;5.97;;;2.40;;
68757;SDS011;55747;51.998;4.466;2022-07-06T14:11:04;6.82;;;2.72;;
68757;SDS011;55747;51.998;4.466;2022-07-06T14:13:32;10.23;;;2.83;;
68757;SDS011;55747;51.998;4.466;2022-07-06T14:15:57;9.00;;;2.70;;
68757;SDS011;55747;51.998;4.466;2022-07-06T14:18:23;4.53;;;2.43;;
68757;SDS011;55747;51.998;4.466;2022-07-06T14:20:49;4.15;;;2.55;;
68757;SDS011;55747;51.998;4.466;2022-07-06T14:23:15;4.85;;;2.47;;
68757;SDS011;55747;51.998;4.466;2022-07-06T14:25:41;5.65;;;2.60;;
68757;SDS011;55747;51.998;4.466;2022-07-06T14:28:07;8.63;;;2.90;;
68757;SDS011;55747;51.998;4.466;2022-07-06T14:30:33;6.75;;;2.45;;
68757;SDS011;55747;51.998;4.466;2022-07-06T14:33:01;8.48;;;2.97;;
68757;SDS011;55747;51.998;4.466;2022-07-06T14:35:31;6.72;;;2.70;;
68757;SDS011;55747;51.998;4.466;2022-07-06T14:37:57;7.05;;;2.83;;
68757;SDS011;55747;51.998;4.466;2022-07-06T14:40:23;8.20;;;3.00;;
68757;SDS011;55747;51.998;4.466;2022-07-06T14:42:48;7.20;;;2.67;;
68757;SDS011;55747;51.998;4.466;2022-07-06T14:45:13;8.13;;;2.93;;
68757;SDS011;55747;51.998;4.466;2022-07-06T14:47:39;6.00;;;2.50;;
68757;SDS011;55747;51.998;4.466;2022-07-06T14:50:04;5.40;;;3.23;;
68757;SDS011;55747;51.998;4.466;2022-07-06T14:52:30;6.18;;;4.00;;
68757;SDS011;55747;51.998;4.466;2022-07-06T14:54:55;10.70;;;3.97;;
68757;SDS011;55747;51.998;4.466;2022-07-06T14:57:22;10.10;;;3.85;;